aviador You're here:

LYUZ Decoded Metar

UZICE PONIKVE in SERBIA
Report Time2017-12-18 08:30:00
UTC Time2017-12-18 09:01:06
Flight Rules lifr LIFR
Wind310° at 06 kt
W.Rank310° ranks 1
Current wind is below 310° avg. (7.2)
Visibility1000 m
Phenomena:Mist
Clouds:Overcast 003 Hf
Ceiling300 ft
Temp-4°C (ISA -13)
Dew Point-4°C (100% RH)
AAT-8.7°C
QNH1017 hPa
Density Alt1,355 ft
Elevation3,012 ft
Report Wrong Elevation
Raw Report
METAR LYUZ 180830Z 31006KT 270V330 1000 BR OVC003 M04/M04 Q1017
R10///////=

Extra information for LYUZ:More info

Metar Taf Metar & Taf Last 4 Metars F.Rules Stats Wind Profile Meteogram Temp Stats Airport Information Weather charts Add Link Nearby VenuesMetar ALERT Operation Metar Decoded Social comments